createdAt,value
2018-12-08T00:01:29.758Z,8.00
2018-12-08T00:03:58.022Z,7.90
2018-12-08T00:06:26.343Z,8.00
2018-12-08T00:08:54.637Z,8.00
2018-12-08T00:11:22.966Z,7.90
2018-12-08T00:13:51.600Z,7.90
2018-12-08T00:16:19.875Z,7.60
2018-12-08T00:18:48.557Z,7.90
2018-12-08T00:21:16.838Z,7.90
2018-12-08T00:23:45.375Z,7.90
2018-12-08T00:26:14.050Z,7.80
2018-12-08T00:28:42.392Z,7.80
2018-12-08T00:31:28.037Z,7.80
2018-12-08T00:33:56.289Z,7.80
2018-12-08T00:36:24.931Z,7.80
2018-12-08T00:41:21.506Z,7.70
2018-12-08T00:43:49.765Z,7.70
2018-12-08T00:46:18.001Z,7.60
2018-12-08T00:48:46.716Z,7.60
2018-12-08T00:51:15.018Z,7.70
2018-12-08T00:53:43.277Z,7.70
2018-12-08T00:56:11.995Z,7.70
2018-12-08T00:58:40.288Z,7.70
2018-12-08T01:01:08.671Z,7.70
2018-12-08T01:03:36.973Z,7.70
2018-12-08T01:06:05.495Z,7.70
2018-12-08T01:08:33.832Z,7.80
2018-12-08T01:11:02.448Z,7.70
2018-12-08T01:13:30.776Z,7.70
2018-12-08T01:16:00.647Z,7.70
2018-12-08T01:18:28.925Z,7.60
2018-12-08T01:20:57.175Z,7.60
2018-12-08T01:23:26.225Z,7.60
2018-12-08T01:25:54.845Z,7.60
2018-12-08T01:28:23.080Z,7.60
2018-12-08T01:30:51.739Z,7.50
2018-12-08T01:33:20.289Z,7.50
2018-12-08T01:35:49.238Z,7.50
2018-12-08T01:38:17.518Z,7.40
2018-12-08T01:40:46.278Z,7.40
2018-12-08T01:43:14.527Z,7.30
2018-12-08T01:50:39.772Z,7.30
2018-12-08T01:53:09.094Z,7.20
2018-12-08T01:55:37.606Z,7.20
2018-12-08T01:58:06.383Z,7.20
2018-12-08T02:00:35.897Z,7.10
2018-12-08T02:03:05.102Z,7.10
2018-12-08T02:05:33.890Z,7.10
2018-12-08T02:08:02.622Z,7.10
2018-12-08T02:10:32.188Z,7.00
2018-12-08T02:13:00.899Z,7.00
2018-12-08T02:15:29.455Z,7.00
2018-12-08T02:17:57.871Z,6.90
2018-12-08T02:20:26.501Z,6.90
2018-12-08T02:22:54.903Z,6.90
2018-12-08T02:25:23.305Z,6.80
2018-12-08T02:27:52.480Z,6.80
2018-12-08T02:30:21.296Z,6.80
2018-12-08T02:32:51.595Z,6.80
2018-12-08T02:35:20.563Z,6.70
2018-12-08T02:37:49.103Z,6.70
2018-12-08T02:40:17.615Z,6.80
2018-12-08T02:42:46.203Z,6.70
2018-12-08T02:45:14.475Z,6.70
2018-12-08T02:47:42.801Z,6.60
2018-12-08T02:50:11.284Z,6.60
2018-12-08T02:52:41.169Z,6.50
2018-12-08T02:55:10.921Z,6.50
2018-12-08T02:57:39.494Z,6.50
2018-12-08T03:00:08.648Z,6.50
2018-12-08T03:02:37.193Z,6.40
2018-12-08T03:05:09.086Z,6.40
2018-12-08T03:07:37.553Z,6.40
2018-12-08T03:10:06.393Z,6.40
2018-12-08T03:12:34.886Z,6.40
2018-12-08T03:15:03.354Z,6.50
2018-12-08T03:17:31.884Z,6.40
2018-12-08T03:20:00.515Z,6.50
2018-12-08T03:22:29.231Z,6.40
2018-12-08T03:24:57.766Z,6.30
2018-12-08T03:27:26.630Z,6.30
2018-12-08T03:29:54.871Z,6.30
2018-12-08T03:32:23.408Z,6.20
2018-12-08T03:34:51.777Z,6.20
2018-12-08T03:37:20.106Z,6.20
2018-12-08T03:39:48.601Z,6.20
2018-12-08T03:42:16.949Z,6.20
2018-12-08T03:44:45.201Z,6.20
2018-12-08T03:47:13.517Z,6.20
2018-12-08T03:49:41.803Z,6.20
2018-12-08T03:52:10.099Z,6.20
2018-12-08T03:57:18.606Z,6.20
2018-12-08T03:59:46.924Z,6.20
2018-12-08T04:02:15.464Z,6.30
2018-12-08T04:04:44.762Z,6.30
2018-12-08T04:07:13.933Z,6.30
2018-12-08T04:09:42.358Z,6.30
2018-12-08T04:12:10.831Z,6.20
2018-12-08T04:14:40.330Z,6.20
2018-12-08T04:17:09.732Z,6.10
2018-12-08T04:19:38.926Z,6.10
2018-12-08T04:22:07.818Z,6.10
2018-12-08T04:24:38.136Z,6.00
2018-12-08T04:27:06.770Z,6.00
2018-12-08T04:32:03.473Z,5.90
2018-12-08T04:34:31.749Z,5.90
2018-12-08T04:37:00.653Z,5.90
2018-12-08T04:39:28.929Z,5.90
2018-12-08T04:41:57.216Z,5.90
2018-12-08T04:44:26.428Z,5.90
2018-12-08T04:49:35.138Z,5.80
2018-12-08T04:52:03.740Z,5.70
2018-12-08T04:54:32.307Z,5.80
2018-12-08T04:57:00.657Z,5.70
2018-12-08T04:59:29.009Z,7.10
2018-12-08T05:01:57.798Z,5.70
2018-12-08T05:04:26.080Z,5.70
2018-12-08T05:06:54.679Z,5.70
2018-12-08T05:09:23.930Z,5.70
2018-12-08T05:11:52.740Z,5.70
2018-12-08T05:14:21.013Z,5.70
2018-12-08T05:16:49.607Z,5.60
2018-12-08T05:19:19.313Z,5.60
2018-12-08T05:21:48.088Z,5.60
2018-12-08T05:24:18.250Z,5.30
2018-12-08T05:26:47.728Z,5.70
2018-12-08T05:29:16.685Z,5.70
2018-12-08T05:31:45.124Z,5.70
2018-12-08T05:34:14.504Z,5.70
2018-12-08T05:36:42.972Z,5.70
2018-12-08T05:39:11.521Z,5.70
2018-12-08T05:41:39.766Z,5.70
2018-12-08T05:46:36.419Z,5.70
2018-12-08T05:49:05.857Z,5.70
2018-12-08T05:51:34.093Z,5.80
2018-12-08T05:54:02.380Z,5.80
2018-12-08T05:56:30.710Z,5.80
2018-12-08T05:58:59.028Z,5.80
2018-12-08T06:01:27.855Z,5.80
2018-12-08T06:03:57.489Z,5.80
2018-12-08T06:06:26.400Z,5.80
2018-12-08T06:08:55.026Z,6.30
2018-12-08T06:11:23.302Z,5.90
2018-12-08T06:13:51.580Z,5.90
2018-12-08T06:18:48.106Z,5.90
2018-12-08T06:21:16.740Z,6.00
2018-12-08T06:26:20.312Z,6.00
2018-12-08T06:28:53.237Z,6.00
2018-12-08T06:31:21.904Z,6.00
2018-12-08T06:33:50.457Z,6.00
2018-12-08T06:36:18.792Z,6.00
2018-12-08T06:38:47.264Z,6.00
2018-12-08T06:41:16.490Z,6.00
2018-12-08T06:43:44.739Z,6.00
2018-12-08T06:46:13.044Z,6.10
2018-12-08T06:51:11.783Z,6.00
2018-12-08T07:01:05.235Z,6.00
2018-12-08T07:03:33.512Z,4.20
2018-12-08T07:06:01.953Z,6.00
2018-12-08T07:08:30.381Z,6.00
2018-12-08T07:10:59.192Z,6.10
2018-12-08T07:13:27.493Z,6.10
2018-12-08T07:15:55.748Z,6.00
2018-12-08T07:18:26.259Z,6.00
2018-12-08T07:20:54.990Z,6.10
2018-12-08T07:23:23.835Z,6.00
2018-12-08T07:25:52.332Z,6.20
2018-12-08T07:28:21.390Z,6.20
2018-12-08T07:30:49.888Z,6.20
2018-12-08T07:33:18.434Z,6.20
2018-12-08T07:35:46.807Z,6.60
2018-12-08T07:38:15.353Z,6.30
2018-12-08T07:40:43.875Z,6.30
2018-12-08T07:43:12.201Z,6.20
2018-12-08T07:45:40.515Z,6.20
2018-12-08T07:48:09.893Z,6.30
2018-12-08T07:50:38.547Z,6.30
2018-12-08T07:53:06.813Z,6.30
2018-12-08T07:55:35.383Z,6.30
2018-12-08T08:00:32.073Z,6.40
2018-12-08T08:03:01.065Z,6.50
2018-12-08T08:05:29.538Z,6.50
2018-12-08T08:07:58.067Z,6.60
2018-12-08T08:10:29.409Z,6.60
2018-12-08T08:12:58.007Z,6.60
2018-12-08T08:15:26.698Z,6.60
2018-12-08T08:17:55.187Z,6.60
2018-12-08T08:20:23.503Z,6.70
2018-12-08T08:22:52.860Z,6.60
2018-12-08T08:25:22.227Z,6.70
2018-12-08T08:27:51.370Z,6.70
2018-12-08T08:30:19.751Z,6.70
2018-12-08T08:32:48.065Z,6.80
2018-12-08T08:35:16.379Z,6.80
2018-12-08T08:37:44.953Z,6.80
2018-12-08T08:40:14.443Z,6.90
2018-12-08T08:42:42.973Z,7.00
2018-12-08T08:45:11.551Z,7.00
2018-12-08T08:47:39.872Z,7.10
2018-12-08T08:50:10.898Z,7.20
2018-12-08T08:52:46.873Z,7.30
2018-12-08T08:55:15.157Z,7.20
2018-12-08T08:57:43.795Z,7.30
2018-12-08T09:00:14.826Z,7.30
2018-12-08T09:02:43.117Z,7.20
2018-12-08T09:05:12.241Z,7.30
2018-12-08T09:07:41.110Z,7.30
2018-12-08T09:10:11.203Z,7.30
2018-12-08T09:12:39.470Z,7.30
2018-12-08T09:15:08.598Z,7.40
2018-12-08T09:17:38.091Z,7.40
2018-12-08T09:20:10.313Z,7.40
2018-12-08T09:22:39.347Z,7.50
2018-12-08T09:25:09.330Z,7.50
2018-12-08T09:27:39.152Z,7.40
2018-12-08T09:30:10.976Z,7.30
2018-12-08T09:32:40.383Z,7.40
2018-12-08T09:37:37.052Z,7.50
2018-12-08T09:40:07.490Z,7.50
2018-12-08T09:42:37.136Z,7.50
2018-12-08T09:45:06.107Z,7.50
2018-12-08T09:47:34.877Z,7.60
2018-12-08T09:50:04.865Z,7.60
2018-12-08T09:52:33.170Z,7.60
2018-12-08T09:55:01.513Z,7.50
2018-12-08T09:57:29.822Z,7.50
2018-12-08T09:59:58.750Z,7.70
2018-12-08T10:02:27.098Z,7.70
2018-12-08T10:07:25.625Z,7.70
2018-12-08T10:09:54.209Z,7.70
2018-12-08T10:12:22.608Z,7.70
2018-12-08T10:14:51.478Z,7.70
2018-12-08T10:17:20.705Z,7.70
2018-12-08T10:19:49.024Z,7.80
2018-12-08T10:22:17.563Z,7.70
2018-12-08T10:24:47.386Z,7.80
2018-12-08T10:29:45.297Z,7.80
2018-12-08T10:32:14.018Z,7.80
2018-12-08T10:34:43.458Z,7.80
2018-12-08T10:37:13.211Z,7.80
2018-12-08T10:39:41.521Z,7.70
2018-12-08T10:42:10.201Z,7.60
2018-12-08T10:44:38.551Z,7.60
2018-12-08T10:47:07.097Z,7.50
2018-12-08T10:49:35.366Z,7.40
2018-12-08T10:52:04.063Z,7.50
2018-12-08T10:54:34.864Z,7.50
2018-12-08T10:57:03.995Z,7.50
2018-12-08T10:59:33.231Z,7.50
2018-12-08T11:02:02.592Z,7.50
2018-12-08T11:04:33.537Z,7.50
2018-12-08T11:07:01.960Z,7.50
2018-12-08T11:09:31.076Z,7.50
2018-12-08T11:11:59.833Z,7.60
2018-12-08T11:14:29.144Z,7.60
2018-12-08T11:16:59.650Z,7.50
2018-12-08T11:19:28.159Z,7.60
2018-12-08T11:21:56.681Z,7.40
2018-12-08T11:24:25.207Z,7.70
2018-12-08T11:26:53.682Z,7.80
2018-12-08T11:29:22.405Z,7.90
2018-12-08T11:31:50.800Z,7.90
2018-12-08T11:34:19.528Z,8.00
2018-12-08T11:36:49.653Z,8.00
2018-12-08T11:39:18.059Z,8.00
2018-12-08T11:41:46.905Z,8.10
2018-12-08T11:44:15.764Z,8.10
2018-12-08T11:46:44.379Z,8.10
2018-12-08T11:49:12.958Z,8.10
2018-12-08T11:54:09.869Z,8.00
2018-12-08T11:56:38.258Z,7.90
2018-12-08T12:04:03.337Z,8.00
2018-12-08T12:06:32.303Z,8.00
2018-12-08T12:09:01.568Z,7.90
2018-12-08T12:13:59.706Z,8.00
2018-12-08T12:18:56.551Z,7.90
2018-12-08T12:26:22.736Z,8.00
2018-12-08T12:28:51.062Z,8.00
2018-12-08T12:31:19.487Z,8.00
2018-12-08T12:33:47.787Z,8.00
2018-12-08T12:36:16.301Z,8.10
2018-12-08T12:38:45.987Z,8.10
2018-12-08T12:41:14.501Z,8.10
2018-12-08T12:43:42.968Z,8.10
2018-12-08T12:46:13.013Z,8.10
2018-12-08T12:48:41.476Z,8.00
2018-12-08T12:51:10.176Z,8.00
2018-12-08T12:53:39.301Z,8.00
2018-12-08T12:56:08.709Z,8.00
2018-12-08T12:58:38.371Z,8.00
2018-12-08T13:01:07.874Z,8.00
2018-12-08T13:03:36.772Z,8.10
2018-12-08T13:06:05.997Z,8.10
2018-12-08T13:08:35.986Z,8.30
2018-12-08T13:11:05.097Z,8.20
2018-12-08T13:13:34.129Z,8.20
2018-12-08T13:16:02.433Z,8.50
2018-12-08T13:18:31.064Z,8.40
2018-12-08T13:23:29.902Z,8.50
2018-12-08T13:25:59.623Z,8.20
2018-12-08T13:28:28.386Z,8.10
2018-12-08T13:30:56.957Z,8.00
2018-12-08T13:33:25.801Z,8.00
2018-12-08T13:36:02.205Z,7.80
2018-12-08T13:38:31.270Z,7.80
2018-12-08T13:40:59.855Z,7.80
2018-12-08T13:43:28.991Z,7.70
2018-12-08T13:45:58.293Z,7.80
2018-12-08T13:48:28.993Z,7.80
2018-12-08T13:50:58.093Z,7.80
2018-12-08T13:53:26.747Z,7.90
2018-12-08T13:55:55.884Z,7.80
2018-12-08T14:00:52.536Z,7.80
2018-12-08T14:03:21.675Z,7.90
2018-12-08T14:08:19.414Z,7.80
2018-12-08T14:13:17.084Z,7.80
2018-12-08T14:15:45.843Z,7.80
2018-12-08T14:20:43.522Z,7.70
2018-12-08T14:25:41.029Z,7.70
2018-12-08T14:28:09.630Z,7.60
2018-12-08T14:30:37.933Z,7.70
2018-12-08T14:33:06.858Z,7.60
2018-12-08T14:35:35.095Z,7.60
2018-12-08T14:38:03.971Z,7.60
2018-12-08T14:40:32.600Z,7.60
2018-12-08T14:43:01.905Z,7.60
2018-12-08T14:45:30.254Z,7.60
2018-12-08T14:47:59.200Z,7.70
2018-12-08T14:50:27.605Z,7.60
2018-12-08T14:52:55.956Z,7.60
2018-12-08T14:55:24.848Z,7.60
2018-12-08T14:57:53.179Z,7.60
2018-12-08T15:00:22.257Z,7.70
2018-12-08T15:02:51.388Z,7.70
2018-12-08T15:05:19.661Z,7.70
2018-12-08T15:07:47.917Z,7.70
2018-12-08T15:10:16.193Z,7.80
2018-12-08T15:15:13.344Z,7.70
2018-12-08T15:17:41.634Z,7.60
2018-12-08T15:20:10.142Z,7.60
2018-12-08T15:22:38.908Z,7.60
2018-12-08T15:25:09.142Z,7.60
2018-12-08T15:27:37.579Z,7.60
2018-12-08T15:30:08.347Z,7.60
2018-12-08T15:32:36.614Z,7.60
2018-12-08T15:35:08.039Z,7.60
2018-12-08T15:37:36.377Z,7.70
2018-12-08T15:40:06.017Z,7.50
2018-12-08T15:42:34.341Z,7.70
2018-12-08T15:45:03.352Z,7.70
2018-12-08T15:47:31.651Z,7.70
2018-12-08T15:52:29.015Z,7.80
2018-12-08T15:54:57.527Z,7.70
2018-12-08T15:57:25.860Z,7.80
2018-12-08T15:59:55.345Z,7.80
2018-12-08T16:07:21.149Z,7.80
2018-12-08T16:17:15.818Z,7.80
2018-12-08T16:19:44.379Z,7.80
2018-12-08T16:24:41.366Z,7.70
2018-12-08T16:29:38.879Z,7.70
2018-12-08T16:32:07.764Z,7.70
2018-12-08T16:34:36.139Z,7.70
2018-12-08T16:37:04.500Z,7.70
2018-12-08T16:39:33.067Z,7.70
2018-12-08T16:42:02.207Z,7.70
2018-12-08T16:44:30.869Z,7.70
2018-12-08T16:46:59.161Z,7.80
2018-12-08T16:49:28.053Z,7.70
2018-12-08T16:51:56.847Z,7.80
2018-12-08T16:56:53.733Z,7.80
2018-12-08T16:59:23.460Z,7.80
2018-12-08T17:01:53.893Z,7.80
2018-12-08T17:04:22.900Z,7.80
2018-12-08T17:16:45.815Z,7.90
2018-12-08T17:19:15.381Z,7.90
2018-12-08T17:21:43.719Z,7.90
2018-12-08T17:24:12.160Z,7.90
2018-12-08T17:26:41.523Z,7.90
2018-12-08T17:31:38.689Z,7.90
2018-12-08T17:36:35.787Z,7.90
2018-12-08T17:39:06.261Z,7.90
2018-12-08T17:44:05.144Z,7.90
2018-12-08T17:49:02.105Z,8.00
2018-12-08T17:51:31.181Z,8.00
2018-12-08T17:54:02.071Z,8.00
2018-12-08T17:56:30.989Z,8.00
2018-12-08T17:58:59.784Z,8.00
2018-12-08T18:01:28.409Z,8.00
2018-12-08T18:03:57.894Z,7.80
2018-12-08T18:06:26.190Z,8.00
2018-12-08T18:08:55.122Z,8.00
2018-12-08T18:11:23.437Z,7.90
2018-12-08T18:13:51.708Z,8.00
2018-12-08T18:16:20.000Z,7.90
2018-12-08T18:18:48.571Z,7.90
2018-12-08T18:21:17.216Z,7.90
2018-12-08T18:26:14.798Z,7.90
2018-12-08T18:28:44.079Z,7.80
2018-12-08T18:31:13.002Z,7.80
2018-12-08T18:36:10.241Z,7.80
2018-12-08T18:38:38.553Z,7.70
2018-12-08T18:41:06.832Z,7.80
2018-12-08T18:46:03.857Z,7.80
2018-12-08T18:48:32.608Z,7.70
2018-12-08T18:51:01.126Z,7.80
2018-12-08T18:53:29.883Z,7.90
2018-12-08T18:55:58.258Z,7.90
2018-12-08T18:58:27.579Z,7.90
2018-12-08T19:00:56.419Z,8.00
2018-12-08T19:03:24.843Z,8.00
2018-12-08T19:05:53.345Z,8.00
2018-12-08T19:08:21.584Z,8.00
2018-12-08T19:13:18.525Z,7.90
2018-12-08T19:15:47.099Z,8.10
2018-12-08T19:18:16.516Z,8.10
2018-12-08T19:20:44.959Z,8.10
2018-12-08T19:23:13.955Z,8.20
2018-12-08T19:25:43.307Z,8.20
2018-12-08T19:28:12.167Z,8.10
2018-12-08T19:30:41.216Z,8.20
2018-12-08T19:33:14.476Z,8.20
2018-12-08T19:35:41.743Z,8.20
2018-12-08T19:38:11.140Z,8.30
2018-12-08T19:40:39.498Z,8.30
2018-12-08T19:43:08.042Z,8.30
2018-12-08T19:45:37.102Z,8.20
2018-12-08T19:48:05.929Z,8.20
2018-12-08T19:50:34.599Z,8.20
2018-12-08T19:53:03.189Z,8.20
2018-12-08T19:55:32.247Z,8.20
2018-12-08T19:58:04.052Z,8.20
2018-12-08T20:00:33.150Z,8.10
2018-12-08T20:03:01.961Z,8.10
2018-12-08T20:07:58.872Z,8.00
2018-12-08T20:10:27.200Z,8.00
2018-12-08T20:12:57.114Z,8.00
2018-12-08T20:15:25.537Z,8.00
2018-12-08T20:17:53.885Z,8.00
2018-12-08T20:20:22.424Z,7.90
2018-12-08T20:22:51.117Z,7.90
2018-12-08T20:25:20.276Z,7.80
2018-12-08T20:27:49.256Z,7.80
2018-12-08T20:30:17.829Z,7.80
2018-12-08T20:32:46.189Z,7.80
2018-12-08T20:35:15.260Z,7.90
2018-12-08T20:37:43.644Z,7.80
2018-12-08T20:40:11.951Z,7.80
2018-12-08T20:42:40.583Z,7.80
2018-12-08T20:45:08.926Z,7.80
2018-12-08T20:47:37.197Z,7.80
2018-12-08T20:50:06.833Z,7.80
2018-12-08T20:52:35.118Z,7.80
2018-12-08T20:55:03.903Z,7.80
2018-12-08T21:00:00.693Z,7.70
2018-12-08T21:04:57.505Z,7.70
2018-12-08T21:07:26.093Z,7.70
2018-12-08T21:09:54.378Z,7.70
2018-12-08T21:14:51.201Z,7.70
2018-12-08T21:22:17.292Z,7.80
2018-12-08T21:24:45.941Z,7.80
2018-12-08T21:27:14.228Z,7.90
2018-12-08T21:29:42.577Z,7.90
2018-12-08T21:32:11.109Z,8.00
2018-12-08T21:34:39.826Z,8.00
2018-12-08T21:44:33.563Z,8.10
2018-12-08T21:47:02.185Z,8.10
2018-12-08T21:49:30.805Z,8.10
2018-12-08T21:51:59.648Z,8.10
2018-12-08T21:54:45.605Z,8.10
2018-12-08T21:57:14.009Z,8.10
2018-12-08T21:59:42.332Z,8.10
2018-12-08T22:02:10.601Z,8.10
2018-12-08T22:04:38.949Z,8.00
2018-12-08T22:07:07.578Z,8.00
2018-12-08T22:09:36.195Z,8.00
2018-12-08T22:12:04.599Z,7.90
2018-12-08T22:14:35.276Z,7.90
2018-12-08T22:19:31.760Z,7.80
2018-12-08T22:22:00.223Z,7.80
2018-12-08T22:24:29.873Z,7.90
2018-12-08T22:26:58.204Z,7.90
2018-12-08T22:29:26.473Z,8.00
2018-12-08T22:31:54.992Z,8.00
2018-12-08T22:34:24.278Z,8.20
2018-12-08T22:36:52.723Z,8.20
2018-12-08T22:39:21.037Z,8.20
2018-12-08T22:41:49.447Z,8.30
2018-12-08T22:44:17.717Z,8.30
2018-12-08T22:46:46.054Z,8.40
2018-12-08T22:49:14.691Z,8.40
2018-12-08T22:51:43.251Z,8.40
2018-12-08T22:54:11.629Z,8.40
2018-12-08T22:56:39.911Z,8.40
2018-12-08T22:59:09.249Z,8.50
2018-12-08T23:01:37.576Z,8.50
2018-12-08T23:04:06.065Z,8.50
2018-12-08T23:06:34.575Z,8.50
2018-12-08T23:09:04.154Z,8.60
2018-12-08T23:14:01.048Z,8.70
2018-12-08T23:16:30.510Z,8.80
2018-12-08T23:18:59.136Z,8.80
2018-12-08T23:21:27.619Z,8.90
2018-12-08T23:23:55.888Z,8.90
2018-12-08T23:26:24.621Z,9.00
2018-12-08T23:28:52.875Z,8.90
2018-12-08T23:31:21.355Z,8.90
2018-12-08T23:33:49.730Z,8.90
2018-12-08T23:36:18.208Z,8.90
2018-12-08T23:41:14.760Z,8.80
2018-12-08T23:43:43.380Z,8.90
2018-12-08T23:46:11.690Z,8.90
2018-12-08T23:48:40.658Z,9.10
2018-12-08T23:51:11.310Z,9.00
2018-12-08T23:53:41.628Z,9.10
2018-12-08T23:58:43.432Z,9.20
